Time;durP1;ratioP1;P1;durP2;ratioP2;P2;SDS_P1;SDS_P2;PMS_P1;PMS_P2;Temp;Humidity;BMP_temperature;BMP_pressure;BME280_temperature;BME280_humidity;BME280_pressure;Samples;Min_cycle;Max_cycle;Signal;HPM_P1;HPM_P2
2023/01/18 00:00:20;;;;;;;;;;;;;;;;;;1045969;28;2253;-50
2023/01/18 00:01:10;;;;;;;;;;;;;;;;;;1042018;28;4050;-47
2023/01/18 00:01:40;;;;;;;;;;;;;;;;;;1047174;28;2527;-50
2023/01/18 00:02:11;;;;;;;;;;;;;;;;;;1048499;28;3702;-48
2023/01/18 00:02:41;;;;;;;;;;;;;;;;;;1050845;28;2578;-49
2023/01/18 00:03:12;;;;;;;;;;;;;;;;;;1052155;28;3848;-47
2023/01/18 00:03:42;;;;;;;;;;;;;;;;;;1048151;28;2761;-52
2023/01/18 00:04:12;;;;;;;;;;;;;;;;;;1045418;28;3931;-50
2023/01/18 00:04:43;;;;;;;;;;;;;;;;;;1044953;28;2780;-48
2023/01/18 00:05:21;;;;;;;;;;;;;;;;;;1044229;28;4022;-52
2023/01/18 00:06:00;;;;;;;;;;;;;;;;;;1049387;28;3872;-48
2023/01/18 00:06:30;;;;;;;;;;;;;;;;;;1049516;28;2791;-49
2023/01/18 00:07:00;;;;;;;;;;;;;;;;;;1049014;28;3765;-47
2023/01/18 00:07:31;;;;;;;;;;;;;;;;;;1048131;28;1903;-48
2023/01/18 00:08:01;;;;;;;;;;;;;;;;;;1048449;28;3886;-49
2023/01/18 00:08:32;;;;;;;;;;;;;;;;;;1048289;28;2964;-47
2023/01/18 00:09:02;;;;;;;;;;;;;;;;;;1048002;28;3879;-50
2023/01/18 00:09:32;;;;;;;;;;;;;;;;;;1052265;28;1993;-50
2023/01/18 00:10:03;;;;;;;;;;;;;;;;;;1048611;28;3816;-49
2023/01/18 00:10:33;;;;;;;;;;;;;;;;;;1047685;28;2832;-49
2023/01/18 00:11:04;;;;;;;;;;;;;;;;;;1049985;28;4376;-47
2023/01/18 00:11:35;;;;;;;;;;;;;;;;;;1048350;28;2383;-48
2023/01/18 00:12:05;;;;;;;;;;;;;;;;;;1048044;28;4060;-50
2023/01/18 00:12:35;;;;;;;;;;;;;;;;;;1050044;28;2677;-46
2023/01/18 00:13:05;;;;;;;;;;;;;;;;;;1049680;28;4009;-47
2023/01/18 00:13:36;;;;;;;;;;;;;;;;;;1048252;28;2422;-48
2023/01/18 00:14:06;;;;;;;;;;;;;;;;;;1050900;28;3856;-52
2023/01/18 00:14:37;;;;;;;;;;;;;;;;;;1051460;28;1943;-51
2023/01/18 00:15:13;;;;;;;;;;;;;;;;;;1049460;28;3656;-48
2023/01/18 00:15:43;;;;;;;;;;;;;;;;;;1047267;28;1817;-48
2023/01/18 00:16:15;;;;;;;;;;;;;;;;;;1047717;28;3897;-51
2023/01/18 00:16:45;;;;;;;;;;;;;;;;;;1048460;28;3940;-47
2023/01/18 00:17:15;;;;;;;;;;;;;;;;;;1049283;28;2501;-48
2023/01/18 00:17:51;;;;;;;;;;;;;;;;;;1050801;28;4152;-49
2023/01/18 00:18:22;;;;;;;;;;;;;;;;;;1049944;28;2114;-48
2023/01/18 00:18:53;;;;;;;;;;;;;;;;;;1047886;28;3881;-50
2023/01/18 00:19:24;;;;;;;;;;;;;;;;;;1048562;28;2203;-49
2023/01/18 00:19:54;;;;;;;;;;;;;;;;;;1046864;28;3841;-49
2023/01/18 00:20:25;;;;;;;;;;;;;;;;;;1049193;28;2784;-52
2023/01/18 00:20:59;;;;;;;;;;;;;;;;;;1050861;28;4136;-51
2023/01/18 00:21:29;;;;;;;;;;;;;;;;;;1047765;28;1783;-50
2023/01/18 00:21:59;;;;;;;;;;;;;;;;;;1047011;28;4368;-48
2023/01/18 00:22:30;;;;;;;;;;;;;;;;;;1048614;28;1708;-51
2023/01/18 00:23:00;;;;;;;;;;;;;;;;;;1048416;28;4394;-49
2023/01/18 00:23:31;;;;;;;;;;;;;;;;;;1049521;28;2750;-47
2023/01/18 00:24:01;;;;;;;;;;;;;;;;;;1048145;28;4021;-49
2023/01/18 00:24:32;;;;;;;;;;;;;;;;;;1048840;28;3037;-51
2023/01/18 00:25:03;;;;;;;;;;;;;;;;;;1049518;28;3727;-49
2023/01/18 00:25:33;;;;;;;;;;;;;;;;;;1049192;28;2437;-49
2023/01/18 00:26:05;;;;;;;;;;;;;;;;;;1048765;28;4103;-48
2023/01/18 00:26:35;;;;;;;;;;;;;;;;;;1047520;28;1543;-50
2023/01/18 00:27:07;;;;;;;;;;;;;;;;;;1048405;28;4250;-49
2023/01/18 00:27:38;;;;;;;;;;;;;;;;;;1048781;28;2050;-50
2023/01/18 00:28:09;;;;;;;;;;;;;;;;;;1050499;28;4317;-49
2023/01/18 00:28:39;;;;;;;;;;;;;;;;;;1050824;28;2512;-47
2023/01/18 00:29:09;;;;;;;;;;;;;;;;;;1049451;28;3972;-48
2023/01/18 00:29:40;;;;;;;;;;;;;;;;;;1047425;28;1844;-49
2023/01/18 00:30:10;;;;;;;;;;;;;;;;;;1048560;28;4155;-49
2023/01/18 00:30:40;;;;;;;;;;;;;;;;;;1050866;28;2815;-49
2023/01/18 00:31:12;;;;;;;;;;;;;;;;;;1048981;28;4218;-50
2023/01/18 00:31:42;;;;;;;;;;;;;;;;;;1048956;28;2019;-48
2023/01/18 00:32:13;;;;;;;;;;;;;;;;;;1046926;28;3905;-50
2023/01/18 00:32:44;;;;;;;;;;;;;;;;;;1048914;28;2751;-47
2023/01/18 00:33:14;;;;;;;;;;;;;;;;;;1047581;28;3598;-49
2023/01/18 00:33:45;;;;;;;;;;;;;;;;;;1050450;28;4210;-48
2023/01/18 00:34:15;;;;;;;;;;;;;;;;;;1048817;28;2595;-49
2023/01/18 00:34:45;;;;;;;;;;;;;;;;;;1049876;28;4022;-48
2023/01/18 00:35:16;;;;;;;;;;;;;;;;;;1049565;28;1983;-48
2023/01/18 00:35:56;;;;;;;;;;;;;;;;;;1047926;28;3782;-49
2023/01/18 00:36:26;;;;;;;;;;;;;;;;;;1050597;28;2199;-51
2023/01/18 00:36:56;;;;;;;;;;;;;;;;;;1048443;28;3881;-49
2023/01/18 00:37:27;;;;;;;;;;;;;;;;;;1048802;28;2349;-48
2023/01/18 00:37:57;;;;;;;;;;;;;;;;;;1050205;28;4161;-48
2023/01/18 00:38:28;;;;;;;;;;;;;;;;;;1051879;28;2127;-46
2023/01/18 00:38:58;;;;;;;;;;;;;;;;;;1049055;28;4269;-49
2023/01/18 00:39:28;;;;;;;;;;;;;;;;;;1050625;28;2081;-49
2023/01/18 00:39:59;;;;;;;;;;;;;;;;;;1049824;28;3864;-48
2023/01/18 00:40:29;;;;;;;;;;;;;;;;;;1047136;28;3133;-50
2023/01/18 00:40:59;;;;;;;;;;;;;;;;;;1048289;28;4091;-48
2023/01/18 00:41:29;;;;;;;;;;;;;;;;;;1048779;28;1834;-47
2023/01/18 00:43:38;;;;;;;;;;;;;;;;;;1047503;28;1687;-48
2023/01/18 00:44:08;;;;;;;;;;;;;;;;;;1047689;28;3778;-49
2023/01/18 00:44:38;;;;;;;;;;;;;;;;;;1047703;28;2739;-48
2023/01/18 00:45:09;;;;;;;;;;;;;;;;;;1049084;28;3746;-48
2023/01/18 00:45:39;;;;;;;;;;;;;;;;;;1051423;28;2407;-47
2023/01/18 00:46:11;;;;;;;;;;;;;;;;;;1051439;28;4320;-49
2023/01/18 00:46:41;;;;;;;;;;;;;;;;;;1046664;28;2529;-48
2023/01/18 00:47:12;;;;;;;;;;;;;;;;;;1049821;28;3999;-50
2023/01/18 00:47:42;;;;;;;;;;;;;;;;;;1049795;28;2781;-48
2023/01/18 00:48:12;;;;;;;;;;;;;;;;;;1051906;28;3808;-50
2023/01/18 00:48:43;;;;;;;;;;;;;;;;;;1051345;28;1783;-53
2023/01/18 00:49:13;;;;;;;;;;;;;;;;;;1048512;28;3861;-48
2023/01/18 00:49:45;;;;;;;;;;;;;;;;;;1050720;28;2155;-48
2023/01/18 00:50:15;;;;;;;;;;;;;;;;;;1049432;28;5174;-48
2023/01/18 00:50:45;;;;;;;;;;;;;;;;;;1048637;28;3841;-50
2023/01/18 00:51:20;;;;;;;;;;;;;;;;;;1049100;28;3208;-47
2023/01/18 00:51:51;;;;;;;;;;;;;;;;;;1047143;28;3861;-48
2023/01/18 00:52:21;;;;;;;;;;;;;;;;;;1051622;28;1642;-48
2023/01/18 00:52:55;;;;;;;;;;;;;;;;;;1050568;28;4485;-50
2023/01/18 00:53:26;;;;;;;;;;;;;;;;;;1047560;28;2103;-49
2023/01/18 00:53:56;;;;;;;;;;;;;;;;;;1048629;28;4045;-48
2023/01/18 00:54:26;;;;;;;;;;;;;;;;;;1048389;28;2898;-51
2023/01/18 00:54:57;;;;;;;;;;;;;;;;;;1049704;28;3914;-51
2023/01/18 00:55:27;;;;;;;;;;;;;;;;;;1049040;28;2742;-48
2023/01/18 00:55:57;;;;;;;;;;;;;;;;;;1048144;28;3845;-50
2023/01/18 00:56:28;;;;;;;;;;;;;;;;;;1050272;28;2019;-50
2023/01/18 00:56:58;;;;;;;;;;;;;;;;;;1049152;28;4015;-50
2023/01/18 00:57:28;;;;;;;;;;;;;;;;;;1047709;28;2526;-47
2023/01/18 00:57:58;;;;;;;;;;;;;;;;;;1047487;28;5432;-49
2023/01/18 00:58:29;;;;;;;;;;;;;;;;;;1048382;28;2133;-51
2023/01/18 00:58:59;;;;;;;;;;;;;;;;;;1048498;28;3926;-49
2023/01/18 00:59:30;;;;;;;;;;;;;;;;;;1050101;28;2271;-52
2023/01/18 01:00:00;;;;;;;;;;;;;;;;;;1047413;28;3787;-49
2023/01/18 01:00:31;;;;;;;;;;;;;;;;;;1048228;28;1646;-53
2023/01/18 01:01:02;;;;;;;;;;;;;;;;;;1047590;28;4360;-49
2023/01/18 01:01:32;;;;;;;;;;;;;;;;;;1050007;28;2715;-49
2023/01/18 01:02:02;;;;;;;;;;;;;;;;;;1049566;28;3891;-51
2023/01/18 01:02:34;;;;;;;;;;;;;;;;;;1049914;28;2894;-49
2023/01/18 01:03:04;;;;;;;;;;;;;;;;;;1049094;28;4516;-49
2023/01/18 01:07:06;;;;;;;;;;;;;;;;;;1047276;28;4181;-48
2023/01/18 01:07:36;;;;;;;;;;;;;;;;;;1046738;28;1715;-48
2023/01/18 01:08:07;;;;;;;;;;;;;;;;;;1048117;28;4196;-48
2023/01/18 01:08:37;;;;;;;;;;;;;;;;;;1045432;28;2654;-47
2023/01/18 01:09:07;;;;;;;;;;;;;;;;;;1044984;28;3787;-51
2023/01/18 01:09:38;;;;;;;;;;;;;;;;;;1048303;28;2072;-47
2023/01/18 01:10:08;;;;;;;;;;;;;;;;;;1050145;28;3900;-47
2023/01/18 01:10:39;;;;;;;;;;;;;;;;;;1046289;28;2828;-48
2023/01/18 01:11:10;;;;;;;;;;;;;;;;;;1047540;28;3772;-48
2023/01/18 01:12:31;;;;;;;;;;;;;;;;;;1049636;28;2607;-48
2023/01/18 01:26:29;;;;;;;;;;;;;;;;;;1051056;28;3976;-49
2023/01/18 01:26:59;;;;;;;;;;;;;;;;;;1050478;28;3861;-48
2023/01/18 01:27:29;;;;;;;;;;;;;;;;;;1051426;28;1803;-47
2023/01/18 01:27:59;;;;;;;;;;;;;;;;;;1048806;28;3763;-49
2023/01/18 01:28:30;;;;;;;;;;;;;;;;;;1051910;28;2555;-46
2023/01/18 01:29:00;;;;;;;;;;;;;;;;;;1046907;28;3988;-48
2023/01/18 01:29:30;;;;;;;;;;;;;;;;;;1048679;28;2966;-47
2023/01/18 01:30:02;;;;;;;;;;;;;;;;;;1046641;28;3889;-49
2023/01/18 01:30:33;;;;;;;;;;;;;;;;;;1047573;28;1228;-49
2023/01/18 01:31:04;;;;;;;;;;;;;;;;;;1048984;28;4008;-49
2023/01/18 01:31:34;;;;;;;;;;;;;;;;;;1049675;28;3061;-48
2023/01/18 01:32:05;;;;;;;;;;;;;;;;;;1047759;28;3994;-49
2023/01/18 01:32:35;;;;;;;;;;;;;;;;;;1047469;28;2884;-48
2023/01/18 01:33:05;;;;;;;;;;;;;;;;;;1049876;28;4465;-52
2023/01/18 01:33:36;;;;;;;;;;;;;;;;;;1049626;28;1611;-49
2023/01/18 01:34:06;;;;;;;;;;;;;;;;;;1046638;28;3998;-50
2023/01/18 01:34:37;;;;;;;;;;;;;;;;;;1049101;28;1725;-51
2023/01/18 01:35:07;;;;;;;;;;;;;;;;;;1048688;28;4008;-49
2023/01/18 01:35:37;;;;;;;;;;;;;;;;;;1051693;28;1756;-50
2023/01/18 01:36:10;;;;;;;;;;;;;;;;;;1049331;28;3939;-48
2023/01/18 01:36:40;;;;;;;;;;;;;;;;;;1045423;28;2050;-47
2023/01/18 01:37:10;;;;;;;;;;;;;;;;;;1041497;28;4007;-50
2023/01/18 01:37:41;;;;;;;;;;;;;;;;;;1047128;28;2132;-50
2023/01/18 01:38:11;;;;;;;;;;;;;;;;;;1045759;28;3780;-49
2023/01/18 01:38:41;;;;;;;;;;;;;;;;;;1047284;28;2190;-48
2023/01/18 01:39:12;;;;;;;;;;;;;;;;;;1046453;28;3758;-50
2023/01/18 01:39:42;;;;;;;;;;;;;;;;;;1048938;28;2783;-50
2023/01/18 01:40:12;;;;;;;;;;;;;;;;;;1048491;28;3790;-50
2023/01/18 01:40:42;;;;;;;;;;;;;;;;;;1049564;28;2672;-52
2023/01/18 01:41:17;;;;;;;;;;;;;;;;;;1048967;28;3806;-52
2023/01/18 01:41:48;;;;;;;;;;;;;;;;;;1047209;28;4204;-48
2023/01/18 01:42:18;;;;;;;;;;;;;;;;;;1048361;28;2809;-48
2023/01/18 01:42:48;;;;;;;;;;;;;;;;;;1048709;28;4030;-47
2023/01/18 01:43:35;;;;;;;;;;;;;;;;;;1049372;28;2175;-53
2023/01/18 01:44:20;;;;;;;;;;;;;;;;;;1046348;28;4014;-49
2023/01/18 01:44:50;;;;;;;;;;;;;;;;;;1048920;28;3992;-49
2023/01/18 01:45:22;;;;;;;;;;;;;;;;;;1048220;28;2254;-52
2023/01/18 01:45:53;;;;;;;;;;;;;;;;;;1049515;28;4058;-54
2023/01/18 01:46:23;;;;;;;;;;;;;;;;;;1051236;28;2665;-47
2023/01/18 01:46:58;;;;;;;;;;;;;;;;;;1049193;28;3868;-50
2023/01/18 01:47:36;;;;;;;;;;;;;;;;;;1050446;28;2833;-49
2023/01/18 01:48:08;;;;;;;;;;;;;;;;;;1046828;28;4412;-47
2023/01/18 01:48:38;;;;;;;;;;;;;;;;;;1048314;28;2821;-50
2023/01/18 01:49:09;;;;;;;;;;;;;;;;;;1047385;28;4010;-50
2023/01/18 01:49:47;;;;;;;;;;;;;;;;;;1049260;28;3778;-49
2023/01/18 01:50:24;;;;;;;;;;;;;;;;;;1047258;28;4905;-50
2023/01/18 01:50:54;;;;;;;;;;;;;;;;;;1047196;28;4036;-47
2023/01/18 01:51:24;;;;;;;;;;;;;;;;;;1048043;28;2228;-48
2023/01/18 01:51:56;;;;;;;;;;;;;;;;;;1051734;28;4026;-49
2023/01/18 01:52:29;;;;;;;;;;;;;;;;;;1050306;28;2084;-48
2023/01/18 01:53:00;;;;;;;;;;;;;;;;;;1050565;28;4098;-50
2023/01/18 01:53:31;;;;;;;;;;;;;;;;;;1045400;28;2623;-48
2023/01/18 01:54:04;;;;;;;;;;;;;;;;;;1045456;28;4023;-48
2023/01/18 01:54:57;;;;;;;;;;;;;;;;;;1044590;28;3465;-51
2023/01/18 01:55:30;;;;;;;;;;;;;;;;;;1033061;28;3828;-49
2023/01/18 01:56:02;;;;;;;;;;;;;;;;;;1046107;28;4245;-51
2023/01/18 01:56:33;;;;;;;;;;;;;;;;;;1046527;28;1706;-51
2023/01/18 01:57:06;;;;;;;;;;;;;;;;;;1047834;28;4057;-49
2023/01/18 01:57:41;;;;;;;;;;;;;;;;;;1048947;28;2099;-48
2023/01/18 01:58:13;;;;;;;;;;;;;;;;;;1048793;28;3873;-55
2023/01/18 01:58:52;;;;;;;;;;;;;;;;;;1048015;28;4216;-49
2023/01/18 01:59:22;;;;;;;;;;;;;;;;;;1049708;28;2517;-48
2023/01/18 01:59:56;;;;;;;;;;;;;;;;;;1048124;28;4420;-47
2023/01/18 02:00:26;;;;;;;;;;;;;;;;;;1047862;28;2346;-48
2023/01/18 02:00:56;;;;;;;;;;;;;;;;;;1046829;28;4315;-48
2023/01/18 02:01:27;;;;;;;;;;;;;;;;;;1049341;28;2635;-50
2023/01/18 02:01:58;;;;;;;;;;;;;;;;;;1050857;28;3921;-47
2023/01/18 02:02:29;;;;;;;;;;;;;;;;;;1048419;28;2472;-47
2023/01/18 02:03:02;;;;;;;;;;;;;;;;;;1049425;28;3897;-51
2023/01/18 02:03:32;;;;;;;;;;;;;;;;;;1048929;28;2170;-47
2023/01/18 02:04:02;;;;;;;;;;;;;;;;;;1046851;28;4196;-51
2023/01/18 02:04:33;;;;;;;;;;;;;;;;;;1050188;28;2650;-48
2023/01/18 02:05:05;;;;;;;;;;;;;;;;;;1047584;28;4029;-48
2023/01/18 02:05:50;;;;;;;;;;;;;;;;;;1043538;28;2883;-48
2023/01/18 02:06:31;;;;;;;;;;;;;;;;;;1043457;28;3937;-51
2023/01/18 02:07:01;;;;;;;;;;;;;;;;;;1045198;28;3863;-50
2023/01/18 02:07:32;;;;;;;;;;;;;;;;;;1045517;28;2892;-52
2023/01/18 02:08:03;;;;;;;;;;;;;;;;;;1047726;28;4020;-48
2023/01/18 02:08:33;;;;;;;;;;;;;;;;;;1046600;28;1695;-52
2023/01/18 02:09:07;;;;;;;;;;;;;;;;;;1046885;28;3822;-48
2023/01/18 02:09:38;;;;;;;;;;;;;;;;;;1045745;28;2690;-51
2023/01/18 02:10:09;;;;;;;;;;;;;;;;;;1046308;28;4323;-47
2023/01/18 02:10:39;;;;;;;;;;;;;;;;;;1046247;28;2815;-49
2023/01/18 02:11:09;;;;;;;;;;;;;;;;;;1047032;28;4674;-52
2023/01/18 02:11:40;;;;;;;;;;;;;;;;;;1045321;28;2684;-52
2023/01/18 02:12:11;;;;;;;;;;;;;;;;;;1045374;28;3751;-49
2023/01/18 02:12:42;;;;;;;;;;;;;;;;;;1047785;28;2778;-49
2023/01/18 02:13:13;;;;;;;;;;;;;;;;;;1046981;28;4163;-46
2023/01/18 02:13:43;;;;;;;;;;;;;;;;;;1046703;28;2105;-48
2023/01/18 02:14:15;;;;;;;;;;;;;;;;;;1047331;28;3841;-47
2023/01/18 02:14:46;;;;;;;;;;;;;;;;;;1046243;28;4198;-47
2023/01/18 02:15:16;;;;;;;;;;;;;;;;;;1047362;28;1819;-48
2023/01/18 02:15:50;;;;;;;;;;;;;;;;;;1047004;28;3894;-53
2023/01/18 02:16:33;;;;;;;;;;;;;;;;;;1046827;28;1718;-48
2023/01/18 02:17:10;;;;;;;;;;;;;;;;;;1045318;28;4317;-50
2023/01/18 02:17:44;;;;;;;;;;;;;;;;;;1048360;28;2741;-49
2023/01/18 02:18:17;;;;;;;;;;;;;;;;;;1045402;28;3825;-46
2023/01/18 02:19:06;;;;;;;;;;;;;;;;;;1048118;28;3930;-46
2023/01/18 02:20:03;;;;;;;;;;;;;;;;;;1045354;28;2791;-48
2023/01/18 02:20:57;;;;;;;;;;;;;;;;;;1046104;28;3798;-51
2023/01/18 02:21:31;;;;;;;;;;;;;;;;;;1035093;28;3754;-51
2023/01/18 02:22:08;;;;;;;;;;;;;;;;;;1044858;28;4025;-54
2023/01/18 02:22:59;;;;;;;;;;;;;;;;;;1046957;28;1653;-49
2023/01/18 02:23:48;;;;;;;;;;;;;;;;;;1044794;28;3754;-50
2023/01/18 02:24:30;;;;;;;;;;;;;;;;;;1047487;28;3625;-50
2023/01/18 02:25:13;;;;;;;;;;;;;;;;;;1046159;28;4006;-46
2023/01/18 02:25:46;;;;;;;;;;;;;;;;;;1046443;28;1809;-48
2023/01/18 02:26:31;;;;;;;;;;;;;;;;;;1047358;28;3785;-48
2023/01/18 02:27:05;;;;;;;;;;;;;;;;;;1044680;28;3875;-47
2023/01/18 02:27:42;;;;;;;;;;;;;;;;;;1046498;28;3102;-48
2023/01/18 02:28:16;;;;;;;;;;;;;;;;;;1046334;28;3860;-50
2023/01/18 02:28:54;;;;;;;;;;;;;;;;;;1046778;28;5339;-49
2023/01/18 02:29:36;;;;;;;;;;;;;;;;;;1045613;28;2388;-48
2023/01/18 02:30:45;;;;;;;;;;;;;;;;;;1044863;28;3724;-49
2023/01/18 02:31:17;;;;;;;;;;;;;;;;;;1035741;28;3946;-49
2023/01/18 02:31:53;;;;;;;;;;;;;;;;;;1034078;28;4045;-48
2023/01/18 02:32:34;;;;;;;;;;;;;;;;;;1040316;28;2828;-52
2023/01/18 02:33:07;;;;;;;;;;;;;;;;;;1045214;28;3852;-48
2023/01/18 02:33:49;;;;;;;;;;;;;;;;;;1042539;28;2813;-51
2023/01/18 02:34:20;;;;;;;;;;;;;;;;;;1041806;28;3814;-49
2023/01/18 02:34:59;;;;;;;;;;;;;;;;;;1044203;28;4042;-48
2023/01/18 02:35:29;;;;;;;;;;;;;;;;;;1044336;28;2849;-49
2023/01/18 02:36:01;;;;;;;;;;;;;;;;;;1047221;28;3753;-50
2023/01/18 02:36:54;;;;;;;;;;;;;;;;;;1046756;28;1751;-50
2023/01/18 02:37:30;;;;;;;;;;;;;;;;;;1046303;28;4082;-49
2023/01/18 02:38:20;;;;;;;;;;;;;;;;;;1046849;28;3824;-49
2023/01/18 02:38:53;;;;;;;;;;;;;;;;;;1044044;28;3786;-49
2023/01/18 02:39:39;;;;;;;;;;;;;;;;;;1046705;28;2655;-50
2023/01/18 02:40:28;;;;;;;;;;;;;;;;;;1044487;28;4068;-53
2023/01/18 02:41:17;;;;;;;;;;;;;;;;;;1046224;28;4255;-52
2023/01/18 02:46:53;;;;;;;;;;;;;;;;;;1042537;28;4105;-50
2023/01/18 02:47:25;;;;;;;;;;;;;;;;;;1046492;28;1647;-50
2023/01/18 02:47:55;;;;;;;;;;;;;;;;;;1045407;28;3794;-51
2023/01/18 02:48:30;;;;;;;;;;;;;;;;;;1046419;28;2035;-50
2023/01/18 02:49:00;;;;;;;;;;;;;;;;;;1043463;28;4112;-50
2023/01/18 02:49:31;;;;;;;;;;;;;;;;;;1046757;28;2113;-49
2023/01/18 02:50:01;;;;;;;;;;;;;;;;;;1044597;28;4027;-50
2023/01/18 02:50:31;;;;;;;;;;;;;;;;;;1043668;28;2376;-53
2023/01/18 02:51:02;;;;;;;;;;;;;;;;;;1045067;28;4228;-48
2023/01/18 02:51:33;;;;;;;;;;;;;;;;;;1046672;28;2725;-48
2023/01/18 02:52:04;;;;;;;;;;;;;;;;;;1045747;28;3895;-48
2023/01/18 02:52:41;;;;;;;;;;;;;;;;;;1045133;28;2744;-49
2023/01/18 02:53:13;;;;;;;;;;;;;;;;;;1046500;28;3769;-48
2023/01/18 02:53:44;;;;;;;;;;;;;;;;;;1048404;28;3443;-49
2023/01/18 02:54:23;;;;;;;;;;;;;;;;;;1049699;28;3892;-49
2023/01/18 02:54:53;;;;;;;;;;;;;;;;;;1050045;28;4165;-49
2023/01/18 02:55:23;;;;;;;;;;;;;;;;;;1050463;28;2481;-48
2023/01/18 02:56:02;;;;;;;;;;;;;;;;;;1046150;28;3854;-49
2023/01/18 02:56:45;;;;;;;;;;;;;;;;;;1047297;28;1961;-48
2023/01/18 02:57:16;;;;;;;;;;;;;;;;;;1044293;28;3859;-53
2023/01/18 02:57:46;;;;;;;;;;;;;;;;;;1044692;28;4083;-48
2023/01/18 02:58:17;;;;;;;;;;;;;;;;;;1045930;28;2667;-50
2023/01/18 02:58:55;;;;;;;;;;;;;;;;;;1046989;28;3941;-47
2023/01/18 02:59:36;;;;;;;;;;;;;;;;;;1044067;28;2832;-51
2023/01/18 03:00:08;;;;;;;;;;;;;;;;;;1044592;28;4032;-50
2023/01/18 03:00:43;;;;;;;;;;;;;;;;;;1046779;28;2090;-48
2023/01/18 03:01:27;;;;;;;;;;;;;;;;;;1045220;28;3876;-50
2023/01/18 03:02:00;;;;;;;;;;;;;;;;;;1044659;28;4130;-53
2023/01/18 03:02:31;;;;;;;;;;;;;;;;;;1045455;28;2363;-50
2023/01/18 03:03:02;;;;;;;;;;;;;;;;;;1045807;28;3806;-48
2023/01/18 03:03:33;;;;;;;;;;;;;;;;;;1046339;28;2079;-48
2023/01/18 03:04:06;;;;;;;;;;;;;;;;;;1044598;28;4142;-50
2023/01/18 03:04:39;;;;;;;;;;;;;;;;;;1044083;28;2840;-48
2023/01/18 03:05:10;;;;;;;;;;;;;;;;;;1044610;28;4077;-47
2023/01/18 03:05:54;;;;;;;;;;;;;;;;;;1044658;28;2782;-47
2023/01/18 03:06:32;;;;;;;;;;;;;;;;;;1045319;28;3949;-49
2023/01/18 03:07:20;;;;;;;;;;;;;;;;;;1045923;28;3776;-49
2023/01/18 03:07:57;;;;;;;;;;;;;;;;;;1044745;28;4235;-46
2023/01/18 03:08:32;;;;;;;;;;;;;;;;;;1045442;28;2767;-47
2023/01/18 03:09:02;;;;;;;;;;;;;;;;;;1046924;28;4398;-49
2023/01/18 03:09:33;;;;;;;;;;;;;;;;;;1047394;28;1907;-47
2023/01/18 03:10:05;;;;;;;;;;;;;;;;;;1045118;28;3816;-48
2023/01/18 03:10:41;;;;;;;;;;;;;;;;;;1046885;28;2148;-50
2023/01/18 03:11:14;;;;;;;;;;;;;;;;;;1045181;28;3983;-51
2023/01/18 03:11:49;;;;;;;;;;;;;;;;;;1046193;28;3048;-51
2023/01/18 03:12:23;;;;;;;;;;;;;;;;;;1044834;28;3839;-50
2023/01/18 03:12:57;;;;;;;;;;;;;;;;;;1046711;28;4028;-47
2023/01/18 03:13:38;;;;;;;;;;;;;;;;;;1047560;28;2049;-48
2023/01/18 03:14:27;;;;;;;;;;;;;;;;;;1045772;28;4273;-50
2023/01/18 03:15:09;;;;;;;;;;;;;;;;;;1048538;28;4398;-48
2023/01/18 03:15:46;;;;;;;;;;;;;;;;;;1049558;28;2318;-50
2023/01/18 03:16:21;;;;;;;;;;;;;;;;;;1043977;28;3635;-54
2023/01/18 03:17:07;;;;;;;;;;;;;;;;;;1045346;28;3800;-50
2023/01/18 03:17:41;;;;;;;;;;;;;;;;;;1046187;28;1912;-48
2023/01/18 03:18:14;;;;;;;;;;;;;;;;;;1046177;28;5182;-50
2023/01/18 03:18:59;;;;;;;;;;;;;;;;;;1046212;28;2815;-50
2023/01/18 03:20:29;;;;;;;;;;;;;;;;;;1044409;28;4074;-52
2023/01/18 03:21:01;;;;;;;;;;;;;;;;;;1046551;28;5309;-47
2023/01/18 03:21:43;;;;;;;;;;;;;;;;;;1045951;28;3173;-49
2023/01/18 03:22:14;;;;;;;;;;;;;;;;;;1046811;28;3855;-48
2023/01/18 03:23:38;;;;;;;;;;;;;;;;;;1046569;28;3922;-47
2023/01/18 03:24:09;;;;;;;;;;;;;;;;;;1044915;28;4025;-53
2023/01/18 03:24:40;;;;;;;;;;;;;;;;;;1047208;28;2056;-49
2023/01/18 03:25:11;;;;;;;;;;;;;;;;;;1045543;28;3883;-47
2023/01/18 03:25:43;;;;;;;;;;;;;;;;;;1047282;28;1871;-51
2023/01/18 03:26:17;;;;;;;;;;;;;;;;;;1045767;28;3778;-48
2023/01/18 03:26:50;;;;;;;;;;;;;;;;;;1046064;28;4437;-51
2023/01/18 03:34:12;;;;;;;;;;;;;;;;;;1046155;28;3750;-47
2023/01/18 03:34:49;;;;;;;;;;;;;;;;;;1045704;28;1822;-47
2023/01/18 03:35:25;;;;;;;;;;;;;;;;;;1048101;28;3881;-47
2023/01/18 03:35:56;;;;;;;;;;;;;;;;;;1045443;28;4081;-52
2023/01/18 03:36:36;;;;;;;;;;;;;;;;;;1043637;28;1657;-50
2023/01/18 03:37:14;;;;;;;;;;;;;;;;;;1040455;28;3812;-51
2023/01/18 03:37:46;;;;;;;;;;;;;;;;;;1043701;28;3872;-48
2023/01/18 03:38:16;;;;;;;;;;;;;;;;;;1046059;28;2119;-50
2023/01/18 03:38:50;;;;;;;;;;;;;;;;;;1044591;28;3982;-49
2023/01/18 03:39:40;;;;;;;;;;;;;;;;;;1047772;28;2135;-50
2023/01/18 03:40:22;;;;;;;;;;;;;;;;;;1045465;28;4341;-49
2023/01/18 03:40:52;;;;;;;;;;;;;;;;;;1045644;28;4378;-49
2023/01/18 03:41:25;;;;;;;;;;;;;;;;;;1046835;28;2296;-50
2023/01/18 03:42:01;;;;;;;;;;;;;;;;;;1046957;28;3914;-49
2023/01/18 03:42:34;;;;;;;;;;;;;;;;;;1044420;28;2955;-49
2023/01/18 03:43:09;;;;;;;;;;;;;;;;;;1044375;28;3794;-49
2023/01/18 03:43:40;;;;;;;;;;;;;;;;;;1047764;28;2810;-47
2023/01/18 03:44:15;;;;;;;;;;;;;;;;;;1046443;28;3706;-50
2023/01/18 03:44:49;;;;;;;;;;;;;;;;;;1044773;28;4272;-54
2023/01/18 03:45:33;;;;;;;;;;;;;;;;;;1044829;28;2840;-47
2023/01/18 03:46:04;;;;;;;;;;;;;;;;;;1044425;28;4025;-48
2023/01/18 03:46:34;;;;;;;;;;;;;;;;;;1045615;28;1953;-47
2023/01/18 03:47:06;;;;;;;;;;;;;;;;;;1045009;28;4399;-52
2023/01/18 03:47:36;;;;;;;;;;;;;;;;;;1045194;28;2738;-50
2023/01/18 03:48:07;;;;;;;;;;;;;;;;;;1044755;28;3880;-49
2023/01/18 03:48:37;;;;;;;;;;;;;;;;;;1045892;28;2660;-50
2023/01/18 03:49:08;;;;;;;;;;;;;;;;;;1045987;28;3914;-47
2023/01/18 03:49:38;;;;;;;;;;;;;;;;;;1046020;28;2970;-49
2023/01/18 03:50:09;;;;;;;;;;;;;;;;;;1043924;28;3902;-48
2023/01/18 03:50:59;;;;;;;;;;;;;;;;;;1046573;28;2377;-50
2023/01/18 03:51:39;;;;;;;;;;;;;;;;;;1047793;28;3804;-51
2023/01/18 03:52:17;;;;;;;;;;;;;;;;;;1047799;28;3915;-48
2023/01/18 03:52:49;;;;;;;;;;;;;;;;;;1043449;28;4027;-49
2023/01/18 03:53:32;;;;;;;;;;;;;;;;;;1046340;28;2796;-52
2023/01/18 03:54:21;;;;;;;;;;;;;;;;;;1043675;28;3924;-48
2023/01/18 03:54:51;;;;;;;;;;;;;;;;;;1046312;28;3862;-48
2023/01/18 03:55:24;;;;;;;;;;;;;;;;;;1045864;28;2761;-50
2023/01/18 03:55:57;;;;;;;;;;;;;;;;;;1046047;28;4029;-48
2023/01/18 03:56:37;;;;;;;;;;;;;;;;;;1046855;28;1851;-52
2023/01/18 03:57:16;;;;;;;;;;;;;;;;;;1045177;28;3929;-48
2023/01/18 03:57:49;;;;;;;;;;;;;;;;;;1044762;28;4178;-48
2023/01/18 03:58:21;;;;;;;;;;;;;;;;;;1046442;28;2458;-50
2023/01/18 03:58:53;;;;;;;;;;;;;;;;;;1044755;28;3946;-50
2023/01/18 03:59:24;;;;;;;;;;;;;;;;;;1045050;28;3351;-49
2023/01/18 03:59:55;;;;;;;;;;;;;;;;;;1044462;28;4037;-50
2023/01/18 04:00:25;;;;;;;;;;;;;;;;;;1046502;28;2048;-49
2023/01/18 04:00:56;;;;;;;;;;;;;;;;;;1046624;28;3844;-50
2023/01/18 04:01:26;;;;;;;;;;;;;;;;;;1046169;28;2230;-52
2023/01/18 04:01:57;;;;;;;;;;;;;;;;;;1045364;28;3951;-52
2023/01/18 04:02:27;;;;;;;;;;;;;;;;;;1044321;28;3093;-49
2023/01/18 04:02:57;;;;;;;;;;;;;;;;;;1047018;28;4051;-50
2023/01/18 04:03:27;;;;;;;;;;;;;;;;;;1046441;28;2165;-50
2023/01/18 04:03:58;;;;;;;;;;;;;;;;;;1044656;28;3771;-49
2023/01/18 04:04:28;;;;;;;;;;;;;;;;;;1045830;28;2678;-46
2023/01/18 04:05:02;;;;;;;;;;;;;;;;;;1045166;28;4726;-51
2023/01/18 04:05:33;;;;;;;;;;;;;;;;;;1046842;28;2007;-46
2023/01/18 04:06:21;;;;;;;;;;;;;;;;;;1049529;28;3790;-49
2023/01/18 04:06:58;;;;;;;;;;;;;;;;;;1050713;28;4102;-50
2023/01/18 04:07:30;;;;;;;;;;;;;;;;;;1054746;28;2673;-49
2023/01/18 04:08:00;;;;;;;;;;;;;;;;;;1053406;28;4372;-47
2023/01/18 04:08:31;;;;;;;;;;;;;;;;;;1053243;28;2289;-48
2023/01/18 04:09:08;;;;;;;;;;;;;;;;;;1052875;28;4053;-47
2023/01/18 04:09:38;;;;;;;;;;;;;;;;;;1053448;28;2877;-46
2023/01/18 04:10:15;;;;;;;;;;;;;;;;;;1053278;28;3677;-49
2023/01/18 04:10:52;;;;;;;;;;;;;;;;;;1053264;28;4021;-49
2023/01/18 04:11:22;;;;;;;;;;;;;;;;;;1053260;28;2058;-50
2023/01/18 04:11:52;;;;;;;;;;;;;;;;;;1049836;28;3820;-51
2023/01/18 04:12:22;;;;;;;;;;;;;;;;;;1050144;28;1894;-48
2023/01/18 04:12:53;;;;;;;;;;;;;;;;;;1048990;28;4347;-51
2023/01/18 04:13:23;;;;;;;;;;;;;;;;;;1049643;28;2523;-48
2023/01/18 04:13:53;;;;;;;;;;;;;;;;;;1053704;28;3888;-48
2023/01/18 04:14:24;;;;;;;;;;;;;;;;;;1054523;28;2437;-47
2023/01/18 04:14:54;;;;;;;;;;;;;;;;;;1052355;28;4174;-48
2023/01/18 04:15:24;;;;;;;;;;;;;;;;;;1050271;28;2738;-48
2023/01/18 04:15:54;;;;;;;;;;;;;;;;;;1053721;28;3843;-50
2023/01/18 04:16:25;;;;;;;;;;;;;;;;;;1051662;28;2159;-51
2023/01/18 04:16:55;;;;;;;;;;;;;;;;;;1052037;28;4363;-51
2023/01/18 04:17:25;;;;;;;;;;;;;;;;;;1053454;28;2144;-48
2023/01/18 04:17:55;;;;;;;;;;;;;;;;;;1054308;28;3782;-52
2023/01/18 04:18:26;;;;;;;;;;;;;;;;;;1052511;28;2165;-48
2023/01/18 04:18:56;;;;;;;;;;;;;;;;;;1052335;28;4375;-47
2023/01/18 04:19:27;;;;;;;;;;;;;;;;;;1047228;28;2936;-51
2023/01/18 04:19:57;;;;;;;;;;;;;;;;;;1048859;28;4037;-48
2023/01/18 04:20:27;;;;;;;;;;;;;;;;;;1049636;28;1835;-48
2023/01/18 04:20:58;;;;;;;;;;;;;;;;;;1048148;28;4201;-50
2023/01/18 04:21:28;;;;;;;;;;;;;;;;;;1052463;28;2748;-50
2023/01/18 04:21:58;;;;;;;;;;;;;;;;;;1052626;28;4533;-48
2023/01/18 04:22:28;;;;;;;;;;;;;;;;;;1050963;28;1950;-49
2023/01/18 04:22:59;;;;;;;;;;;;;;;;;;1052862;28;4254;-51
2023/01/18 04:23:29;;;;;;;;;;;;;;;;;;1055330;28;1981;-52
2023/01/18 04:24:00;;;;;;;;;;;;;;;;;;1048349;28;6084;-47